createdAt,value
2018-11-11T00:00:55.794Z,11.57
2018-11-11T00:01:55.773Z,11.66
2018-11-11T00:02:55.769Z,11.76
2018-11-11T00:03:55.747Z,11.38
2018-11-11T00:04:55.746Z,12.33
2018-11-11T00:05:55.726Z,12.14
2018-11-11T00:06:55.452Z,12.52
2018-11-11T00:07:55.701Z,12.71
2018-11-11T00:08:55.683Z,12.71
2018-11-11T00:09:55.673Z,13.09
2018-11-11T00:10:55.645Z,13.65
2018-11-11T00:11:55.638Z,13.28
2018-11-11T00:12:55.619Z,13.75
2018-11-11T00:13:55.599Z,13.56
2018-11-11T00:14:55.587Z,14.03
2018-11-11T00:15:55.581Z,14.03
2018-11-11T00:16:55.581Z,14.13
2018-11-11T00:17:55.545Z,14.51
2018-11-11T00:18:55.527Z,14.7
2018-11-11T00:19:55.514Z,14.98
2018-11-11T00:20:55.544Z,15.36
2018-11-11T00:21:55.830Z,15.45
2018-11-11T00:22:55.223Z,15.45
2018-11-11T00:23:55.203Z,15.64
2018-11-11T00:24:55.441Z,15.55
2018-11-11T00:25:55.429Z,15.55
2018-11-11T00:26:55.423Z,15.64
2018-11-11T00:27:55.146Z,16.12
2018-11-11T00:28:55.388Z,16.78
2018-11-11T00:29:55.366Z,17.35
2018-11-11T00:30:55.356Z,17.26
2018-11-11T00:31:55.340Z,18.11
2018-11-11T00:32:55.334Z,18.87
2018-11-11T00:33:55.061Z,19.15
2018-11-11T00:34:55.297Z,20.01
2018-11-11T00:35:55.286Z,19.82
2018-11-11T00:36:55.265Z,19.92
2018-11-11T00:37:55.252Z,20.1
2018-11-11T00:38:55.239Z,19.63
2018-11-11T00:39:55.220Z,19.15
2018-11-11T00:40:55.222Z,19.15
2018-11-11T00:41:55.196Z,18.77
2018-11-11T00:42:55.177Z,18.77
2018-11-11T00:43:55.167Z,18.59
2018-11-11T00:44:55.158Z,19.15
2018-11-11T00:45:54.883Z,19.63
2018-11-11T00:46:55.124Z,18.87
2018-11-11T00:47:55.109Z,17.16
2018-11-11T00:48:55.094Z,16.69
2018-11-11T00:49:54.826Z,16.78
2018-11-11T00:50:55.061Z,16.6
2018-11-11T00:51:55.051Z,16.22
2018-11-11T00:52:55.037Z,16.31
2018-11-11T00:53:55.018Z,16.03
2018-11-11T00:54:55.005Z,16.78
2018-11-11T00:55:54.988Z,16.78
2018-11-11T00:56:54.726Z,16.69
2018-11-11T00:57:54.960Z,16.69
2018-11-11T00:58:54.949Z,16.69
2018-11-11T00:59:54.959Z,16.6
2018-11-11T01:00:54.925Z,16.22
2018-11-11T01:01:54.653Z,15.93
2018-11-11T01:02:54.640Z,15.93
2018-11-11T01:03:54.624Z,15.64
2018-11-11T01:04:54.863Z,14.89
2018-11-11T01:05:54.593Z,15.08
2018-11-11T01:06:54.833Z,14.89
2018-11-11T01:07:54.820Z,14.89
2018-11-11T01:08:54.803Z,15.36
2018-11-11T01:09:54.538Z,15.75
2018-11-11T01:10:54.775Z,16.32
2018-11-11T01:11:54.510Z,16.79
2018-11-11T01:12:54.747Z,17.17
2018-11-11T01:13:54.735Z,17.36
2018-11-11T01:14:54.466Z,17.08
2018-11-11T01:15:54.449Z,18.12
2018-11-11T01:16:54.686Z,19.17
2018-11-11T01:17:54.672Z,19.92
2018-11-11T01:18:54.666Z,20.21
2018-11-11T01:19:54.392Z,21.44
2018-11-11T01:20:54.382Z,22.01
2018-11-11T01:21:54.365Z,23.05
2018-11-11T01:22:54.603Z,23.63
2018-11-11T01:23:54.590Z,24.38
2018-11-11T01:24:54.577Z,25.43
2018-11-11T01:25:54.558Z,25.99
2018-11-11T01:26:54.547Z,27.51
2018-11-11T01:27:54.534Z,28.37
2018-11-11T01:28:54.515Z,29.32
2018-11-11T01:29:54.506Z,29.98
2018-11-11T01:30:54.237Z,30.65
2018-11-11T01:31:54.479Z,32.17
2018-11-11T01:32:54.461Z,33.11
2018-11-11T01:33:54.451Z,34.54
2018-11-11T01:34:54.181Z,35.96
2018-11-11T01:35:54.422Z,36.63
2018-11-11T01:36:54.407Z,37.57
2018-11-11T01:37:54.137Z,38.53
2018-11-11T01:38:54.124Z,39.28
2018-11-11T01:39:54.370Z,39.37
2018-11-11T01:40:54.095Z,39.95
2018-11-11T01:41:54.345Z,40.14
2018-11-11T01:42:54.321Z,39.85
2018-11-11T01:43:54.312Z,39.57
2018-11-11T01:44:54.294Z,39.47
2018-11-11T01:45:54.277Z,38.9
2018-11-11T01:46:54.273Z,38.71
2018-11-11T01:47:54.264Z,39
2018-11-11T01:48:54.233Z,38.24
2018-11-11T01:49:54.223Z,38.24
2018-11-11T01:50:53.954Z,38.33
2018-11-11T01:51:54.193Z,37.76
2018-11-11T01:52:54.179Z,37.76
2018-11-11T01:53:54.166Z,38.05
2018-11-11T01:54:54.150Z,37.19
2018-11-11T01:55:54.138Z,37.01
2018-11-11T01:56:53.868Z,36.72
2018-11-11T01:57:54.108Z,36.82
2018-11-11T01:58:53.841Z,36.53
2018-11-11T01:59:54.080Z,36.44
2018-11-11T02:00:54.063Z,36.24
2018-11-11T02:01:53.800Z,35.77
2018-11-11T02:02:54.045Z,36.05
2018-11-11T02:03:54.026Z,35.86
2018-11-11T02:04:54.009Z,36.15
2018-11-11T02:05:53.744Z,36.05
2018-11-11T02:06:53.985Z,35.96
2018-11-11T02:07:53.969Z,35.86
2018-11-11T02:08:53.701Z,35.86
2018-11-11T02:09:54.181Z,36.24
2018-11-11T02:10:53.927Z,36.53
2018-11-11T02:11:53.915Z,36.63
2018-11-11T02:12:53.899Z,36.44
2018-11-11T02:13:53.885Z,37.01
2018-11-11T02:14:53.867Z,37.95
2018-11-11T02:15:53.852Z,38.71
2018-11-11T02:16:53.843Z,40.04
2018-11-11T02:17:53.825Z,41.56
2018-11-11T02:18:53.811Z,42.98
2018-11-11T02:19:53.803Z,44.4
2018-11-11T02:20:53.866Z,45.45
2018-11-11T02:21:53.777Z,46.4
2018-11-11T02:22:53.505Z,47.34
2018-11-11T02:23:53.491Z,47.73
2018-11-11T02:24:53.727Z,47.82
2018-11-11T02:25:53.712Z,47.53
2018-11-11T02:26:53.703Z,47.63
2018-11-11T02:27:53.693Z,48.3
2018-11-11T02:28:53.677Z,48.77
2018-11-11T02:29:53.662Z,49.53
2018-11-11T02:30:53.665Z,50.6
2018-11-11T02:31:53.643Z,50.89
2018-11-11T02:32:53.621Z,51.55
2018-11-11T02:33:53.604Z,52.02
2018-11-11T02:34:53.591Z,52.69
2018-11-11T02:35:53.574Z,52.69
2018-11-11T02:36:53.561Z,53.45
2018-11-11T02:37:53.353Z,54.21
2018-11-11T02:38:53.537Z,54.78
2018-11-11T02:39:53.516Z,54.97
2018-11-11T02:40:53.507Z,55.35
2018-11-11T02:41:53.255Z,55.73
2018-11-11T02:42:53.477Z,55.91
2018-11-11T02:43:53.467Z,55.91
2018-11-11T02:44:53.457Z,56.39
2018-11-11T02:45:53.439Z,56.77
2018-11-11T02:46:53.425Z,57.24
2018-11-11T02:47:53.436Z,57.15
2018-11-11T02:48:53.393Z,57.62
2018-11-11T02:49:53.133Z,57.43
2018-11-11T02:50:53.368Z,58.1
2018-11-11T02:51:53.359Z,58.2
2018-11-11T02:52:53.089Z,59.71
2018-11-11T02:53:53.326Z,60.28
2018-11-11T02:54:53.315Z,60.95
2018-11-11T02:55:53.049Z,61.33
2018-11-11T02:56:53.038Z,62.27
2018-11-11T02:57:53.274Z,62.37
2018-11-11T02:58:53.258Z,62.94
2018-11-11T02:59:53.244Z,62.75
2018-11-11T03:00:52.982Z,63.13
2018-11-11T03:01:53.223Z,63.7
2018-11-11T03:02:53.213Z,64.27
2018-11-11T03:03:53.192Z,65.12
2018-11-11T03:04:53.177Z,66.08
2018-11-11T03:05:53.161Z,67.21
2018-11-11T03:06:52.900Z,67.12
2018-11-11T03:07:53.141Z,67.21
2018-11-11T03:08:53.129Z,67.02
2018-11-11T03:09:53.112Z,67.12
2018-11-11T03:10:53.102Z,66.93
2018-11-11T03:11:53.089Z,67.4
2018-11-11T03:12:53.067Z,67.5
2018-11-11T03:13:53.058Z,67.31
2018-11-11T03:14:53.063Z,67.79
2018-11-11T03:15:52.778Z,67.59
2018-11-11T03:16:53.011Z,70.15
2018-11-11T03:17:53.004Z,70.35
2018-11-11T03:18:52.996Z,71.67
2018-11-11T03:19:52.979Z,71.67
2018-11-11T03:20:52.957Z,72.34
2018-11-11T03:21:52.696Z,73.19
2018-11-11T03:22:52.934Z,73.57
2018-11-11T03:23:52.931Z,73.76
2018-11-11T03:24:52.908Z,74.05
2018-11-11T03:25:52.896Z,73.76
2018-11-11T03:26:52.882Z,74.05
2018-11-11T03:27:52.868Z,73.96
2018-11-11T03:28:52.854Z,74.15
2018-11-11T03:29:52.840Z,74.81
2018-11-11T03:30:52.830Z,75.57
2018-11-11T03:31:52.813Z,76.52
2018-11-11T03:32:52.807Z,77.37
2018-11-11T03:33:52.787Z,77.56
2018-11-11T03:34:52.520Z,78.32
2018-11-11T03:35:52.761Z,78.23
2018-11-11T03:36:52.750Z,78.23
2018-11-11T03:37:52.735Z,78.8
2018-11-11T03:38:52.724Z,78.23
2018-11-11T03:39:52.707Z,77.47
2018-11-11T03:40:52.442Z,76.14
2018-11-11T03:41:52.679Z,74.71
2018-11-11T03:42:52.670Z,74.71
2018-11-11T03:43:52.655Z,74.33
2018-11-11T03:44:52.642Z,74.33
2018-11-11T03:45:52.380Z,73.57
2018-11-11T03:46:52.617Z,72.72
2018-11-11T03:47:52.604Z,71.01
2018-11-11T03:48:52.338Z,69.87
2018-11-11T03:49:52.573Z,68.54
2018-11-11T03:50:52.564Z,68.35
2018-11-11T03:51:52.296Z,68.16
2018-11-11T03:52:52.539Z,67.97
2018-11-11T03:53:52.530Z,68.54
2018-11-11T03:54:52.541Z,68.83
2018-11-11T03:55:52.495Z,68.35
2018-11-11T03:56:52.497Z,67.69
2018-11-11T03:57:52.472Z,67.21
2018-11-11T03:58:52.686Z,67.59
2018-11-11T03:59:52.191Z,66.93
2018-11-11T04:00:52.430Z,67.31
2018-11-11T04:01:52.420Z,66.36
2018-11-11T04:02:52.401Z,66.74
2018-11-11T04:03:52.395Z,66.46
2018-11-11T04:04:52.376Z,66.55
2018-11-11T04:05:52.364Z,66.55
2018-11-11T04:06:52.353Z,65.5
2018-11-11T04:07:52.334Z,64.65
2018-11-11T04:08:52.337Z,64.56
2018-11-11T04:09:52.057Z,63.6
2018-11-11T04:10:52.299Z,63.7
2018-11-11T04:11:52.280Z,62.94
2018-11-11T04:12:52.273Z,62.66
2018-11-11T04:13:52.257Z,62.66
2018-11-11T04:14:52.244Z,62.94
2018-11-11T04:15:52.234Z,62.37
2018-11-11T04:16:52.224Z,62.66
2018-11-11T04:17:52.199Z,62.56
2018-11-11T04:18:52.187Z,62.37
2018-11-11T04:19:52.176Z,62.27
2018-11-11T04:20:52.160Z,61.42
2018-11-11T04:21:52.147Z,61.33
2018-11-11T04:22:52.141Z,61.04
2018-11-11T04:23:52.118Z,60.95
2018-11-11T04:24:52.111Z,61.9
2018-11-11T04:25:52.094Z,61.9
2018-11-11T04:26:52.088Z,61.52
2018-11-11T04:27:52.068Z,61.71
2018-11-11T04:28:52.055Z,61.71
2018-11-11T04:29:51.788Z,61.71
2018-11-11T04:30:52.028Z,61.33
2018-11-11T04:31:52.021Z,60.28
2018-11-11T04:32:51.998Z,60.1
2018-11-11T04:33:51.983Z,59.71
2018-11-11T04:34:51.724Z,59.62
2018-11-11T04:35:51.957Z,59.33
2018-11-11T04:36:51.947Z,59.91
2018-11-11T04:37:51.930Z,59.24
2018-11-11T04:38:51.925Z,59.05
2018-11-11T04:39:51.911Z,58.76
2018-11-11T04:40:51.890Z,58.39
2018-11-11T04:41:51.880Z,58
2018-11-11T04:42:51.873Z,58
2018-11-11T04:43:51.853Z,58.39
2018-11-11T04:44:51.845Z,57.62
2018-11-11T04:45:51.574Z,57.81
2018-11-11T04:46:51.829Z,58.1
2018-11-11T04:47:51.796Z,57.81
2018-11-11T04:48:51.784Z,58
2018-11-11T04:49:51.774Z,57.34
2018-11-11T04:50:51.759Z,57.53
2018-11-11T04:51:51.754Z,57.53
2018-11-11T04:52:51.735Z,57.53
2018-11-11T04:53:51.720Z,57.72
2018-11-11T04:54:51.706Z,57.72
2018-11-11T04:55:51.691Z,57.72
2018-11-11T04:56:51.682Z,57.43
2018-11-11T04:57:51.661Z,57.34
2018-11-11T04:58:51.651Z,57.15
2018-11-11T04:59:51.638Z,56.49
2018-11-11T05:00:51.622Z,56.77
2018-11-11T05:01:51.615Z,56.29
2018-11-11T05:02:51.597Z,56.01
2018-11-11T05:03:51.329Z,56.29
2018-11-11T05:04:51.410Z,55.54
2018-11-11T05:05:51.560Z,55.73
2018-11-11T05:06:51.546Z,55.16
2018-11-11T05:07:51.527Z,55.54
2018-11-11T05:08:51.264Z,54.87
2018-11-11T05:09:51.248Z,54.39
2018-11-11T05:10:51.238Z,54.39
2018-11-11T05:11:51.484Z,54.58
2018-11-11T05:12:51.463Z,54.3
2018-11-11T05:13:51.194Z,54.49
2018-11-11T05:14:51.433Z,54.49
2018-11-11T05:15:51.417Z,54.49
2018-11-11T05:16:51.413Z,54.87
2018-11-11T05:17:51.392Z,54.58
2018-11-11T05:18:51.385Z,54.49
2018-11-11T05:19:51.370Z,54.49
2018-11-11T05:20:51.356Z,54.49
2018-11-11T05:21:51.420Z,54.39
2018-11-11T05:22:51.327Z,54.21
2018-11-11T05:23:51.312Z,53.83
2018-11-11T05:24:51.298Z,53.92
2018-11-11T05:25:51.034Z,53.54
2018-11-11T05:26:51.273Z,53.64
2018-11-11T05:27:51.261Z,54.68
2018-11-11T05:28:50.993Z,54.39
2018-11-11T05:29:51.235Z,54.87
2018-11-11T05:30:50.970Z,54.39
2018-11-11T05:31:51.204Z,55.44
2018-11-11T05:32:51.190Z,55.82
2018-11-11T05:33:51.181Z,55.82
2018-11-11T05:34:51.161Z,56.1
2018-11-11T05:35:51.155Z,57.72
2018-11-11T05:36:51.134Z,58.58
2018-11-11T05:37:50.870Z,58.48
2018-11-11T05:38:51.110Z,60.1
2018-11-11T05:39:51.093Z,61.23
2018-11-11T05:40:51.083Z,62.46
2018-11-11T05:41:51.071Z,63.79
2018-11-11T05:42:51.061Z,64.08
2018-11-11T05:43:51.043Z,64.27
2018-11-11T05:44:50.776Z,64.37
2018-11-11T05:45:51.016Z,63.79
2018-11-11T05:46:51.000Z,64.17
2018-11-11T05:47:50.986Z,64.27
2018-11-11T05:48:50.973Z,64.37
2018-11-11T05:49:50.969Z,63.89
2018-11-11T05:50:50.945Z,63.23
2018-11-11T05:51:50.931Z,63.23
2018-11-11T05:52:50.923Z,63.6
2018-11-11T05:53:50.652Z,63.89
2018-11-11T05:54:50.890Z,64.56
2018-11-11T05:55:50.882Z,64.84
2018-11-11T05:56:50.866Z,65.03
2018-11-11T05:57:50.853Z,65.41
2018-11-11T05:58:50.586Z,65.79
2018-11-11T05:59:50.821Z,65.79
2018-11-11T06:00:50.557Z,66.08
2018-11-11T06:01:50.544Z,65.88
2018-11-11T06:02:50.787Z,65.69
2018-11-11T06:03:50.768Z,65.98
2018-11-11T06:04:50.756Z,65.69
2018-11-11T06:05:50.491Z,65.03
2018-11-11T06:06:50.475Z,65.12
2018-11-11T06:07:50.718Z,65.12
2018-11-11T06:08:50.704Z,65.12
2018-11-11T06:09:50.690Z,64.94
2018-11-11T06:10:50.676Z,65.12
2018-11-11T06:11:50.663Z,65.12
2018-11-11T06:12:50.645Z,65.03
2018-11-11T06:13:50.637Z,64.94
2018-11-11T06:14:50.625Z,65.12
2018-11-11T06:15:50.609Z,65.03
2018-11-11T06:16:50.596Z,65.03
2018-11-11T06:17:50.578Z,64.84
2018-11-11T06:18:50.566Z,64.65
2018-11-11T06:19:50.550Z,64.17
2018-11-11T06:20:50.541Z,63.79
2018-11-11T06:21:50.530Z,62.94
2018-11-11T06:22:50.519Z,62.66
2018-11-11T06:23:50.496Z,62.18
2018-11-11T06:24:50.503Z,61.33
2018-11-11T06:25:50.472Z,60.85
2018-11-11T06:26:50.464Z,60.85
2018-11-11T06:27:50.463Z,60.95
2018-11-11T06:28:50.431Z,61.04
2018-11-11T06:29:50.166Z,61.23
2018-11-11T06:30:50.154Z,61.04
2018-11-11T06:31:50.392Z,61.14
2018-11-11T06:32:50.381Z,61.33
2018-11-11T06:33:50.375Z,61.04
2018-11-11T06:34:50.351Z,60.57
2018-11-11T06:35:50.334Z,60.1
2018-11-11T06:36:50.322Z,60.47
2018-11-11T06:37:50.313Z,60.1
2018-11-11T06:38:50.295Z,60.38
2018-11-11T06:39:50.031Z,60.85
2018-11-11T06:40:50.270Z,60.95
2018-11-11T06:41:50.263Z,60.95
2018-11-11T06:42:49.989Z,61.04
2018-11-11T06:43:50.227Z,61.33
2018-11-11T06:44:49.964Z,60.47
2018-11-11T06:45:50.200Z,60.19
2018-11-11T06:46:50.192Z,59.05
2018-11-11T06:47:50.189Z,59.33
2018-11-11T06:48:50.162Z,59.33
2018-11-11T06:49:50.145Z,59.71
2018-11-11T06:50:50.133Z,59.52
2018-11-11T06:51:49.868Z,59.71
2018-11-11T06:52:50.118Z,59.81
2018-11-11T06:53:50.096Z,59.33
2018-11-11T06:54:50.080Z,59.71
2018-11-11T06:55:50.066Z,59.24
2018-11-11T06:56:50.055Z,59.14
2018-11-11T06:57:50.126Z,58.48
2018-11-11T06:58:50.028Z,58.67
2018-11-11T06:59:49.758Z,59.14
2018-11-11T07:00:50.004Z,59.52
2018-11-11T07:01:50.030Z,60.38
2018-11-11T07:02:49.973Z,61.14
2018-11-11T07:03:49.707Z,61.04
2018-11-11T07:04:49.943Z,61.71
2018-11-11T07:05:49.933Z,62.75
2018-11-11T07:06:49.665Z,62.46
2018-11-11T07:07:49.660Z,63.51
2018-11-11T07:08:49.638Z,63.89
2018-11-11T07:09:49.628Z,64.75
2018-11-11T07:10:49.864Z,64.56
2018-11-11T07:11:49.851Z,64.75
2018-11-11T07:12:49.837Z,64.46
2018-11-11T07:13:49.650Z,64.37
2018-11-11T07:14:49.810Z,63.98
2018-11-11T07:15:49.546Z,62.85
2018-11-11T07:16:49.782Z,61.8
2018-11-11T07:17:49.772Z,60.95
2018-11-11T07:18:49.758Z,59.91
2018-11-11T07:19:49.742Z,58.86
2018-11-11T07:20:49.731Z,58.39
2018-11-11T07:21:49.716Z,57.72
2018-11-11T07:22:49.699Z,57.62
2018-11-11T07:23:49.918Z,57.15
2018-11-11T07:24:49.679Z,56.39
2018-11-11T07:25:49.661Z,56.01
2018-11-11T07:26:49.646Z,54.68
2018-11-11T07:27:49.382Z,53.35
2018-11-11T07:28:49.624Z,52.4
2018-11-11T07:29:49.609Z,51.17
2018-11-11T07:30:49.340Z,50.98
2018-11-11T07:31:49.579Z,50.51
2018-11-11T07:32:49.565Z,50.6
2018-11-11T07:33:49.554Z,51.07
2018-11-11T07:34:49.540Z,52.22
2018-11-11T07:35:49.286Z,53.26
2018-11-11T07:36:49.516Z,54.3
2018-11-11T07:37:49.496Z,54.49
2018-11-11T07:38:49.485Z,55.44
2018-11-11T07:39:49.473Z,55.91
2018-11-11T07:40:49.456Z,56.29
2018-11-11T07:41:49.192Z,56.96
2018-11-11T07:42:49.436Z,57.72
2018-11-11T07:43:49.418Z,57.81
2018-11-11T07:44:49.152Z,58.1
2018-11-11T07:45:49.392Z,58.76
2018-11-11T07:46:49.383Z,59.05
2018-11-11T07:47:49.143Z,59.05
2018-11-11T07:48:49.350Z,58.39
2018-11-11T07:49:49.337Z,58.58
2018-11-11T07:50:49.069Z,58.48
2018-11-11T07:51:49.386Z,57.62
2018-11-11T07:52:49.294Z,57.24
2018-11-11T07:53:49.282Z,56.01
2018-11-11T07:54:49.356Z,54.49
2018-11-11T07:55:49.255Z,54.58
2018-11-11T07:56:49.241Z,54.58
2018-11-11T07:57:49.227Z,54.78
2018-11-11T07:58:49.220Z,55.16
2018-11-11T07:59:48.949Z,55.06
2018-11-11T08:00:49.188Z,55.35
2018-11-11T08:01:49.535Z,55.16
2018-11-11T08:02:49.160Z,55.35
2018-11-11T08:03:48.896Z,55.35
2018-11-11T08:04:49.162Z,55.63
2018-11-11T08:05:49.132Z,55.54
2018-11-11T08:06:49.112Z,55.66
2018-11-11T08:07:48.844Z,54.49
2018-11-11T08:08:48.838Z,54.49
2018-11-11T08:09:49.069Z,54.49
2018-11-11T08:10:49.084Z,54.02
2018-11-11T08:11:49.046Z,53.92
2018-11-11T08:12:49.057Z,53.83
2018-11-11T08:13:49.012Z,53.54
2018-11-11T08:14:49.005Z,53.64
2018-11-11T08:15:48.736Z,53.38
2018-11-11T08:16:49.145Z,53.16
2018-11-11T08:17:48.962Z,53.26
2018-11-11T08:18:48.956Z,52.5
2018-11-11T08:19:48.937Z,52.91
2018-11-11T08:20:48.927Z,52.72
2018-11-11T08:21:48.653Z,52.69
2018-11-11T08:22:48.895Z,52.43
2018-11-11T08:23:48.880Z,52.14
2018-11-11T08:24:48.868Z,51.86
2018-11-11T08:25:48.852Z,52.14
2018-11-11T08:26:48.588Z,52.24
2018-11-11T08:27:48.835Z,52.62
2018-11-11T08:28:48.817Z,52.81
2018-11-11T08:29:48.802Z,52.62
2018-11-11T08:30:48.538Z,52.53
2018-11-11T08:31:48.776Z,52.24
2018-11-11T08:32:48.761Z,52.14
2018-11-11T08:33:48.750Z,52.62
2018-11-11T08:34:48.739Z,53.47
2018-11-11T08:35:48.724Z,54.61
2018-11-11T08:36:48.708Z,56.16
2018-11-11T08:37:48.443Z,57.68
2018-11-11T08:38:48.684Z,60.91
2018-11-11T08:39:48.672Z,62.62
2018-11-11T08:40:48.665Z,67.47
2018-11-11T08:41:48.648Z,70.51
2018-11-11T08:42:48.380Z,72.64
2018-11-11T08:43:48.368Z,73.59
2018-11-11T08:44:48.605Z,78.16
2018-11-11T08:45:48.591Z,80.63
2018-11-11T08:46:48.583Z,82.62
2018-11-11T08:47:48.571Z,84.85
2018-11-11T08:48:48.555Z,85.14
2018-11-11T08:49:48.544Z,87.99
2018-11-11T08:50:48.280Z,89.89
2018-11-11T08:51:48.269Z,91.32
2018-11-11T08:52:48.511Z,92.27
2018-11-11T08:53:48.242Z,92.36
2018-11-11T08:54:48.485Z,94.46
2018-11-11T08:55:48.476Z,96.55
2018-11-11T08:56:48.459Z,97.5
2018-11-11T08:57:48.215Z,99.99
2018-11-11T08:58:48.186Z,99.99
2018-11-11T08:59:48.429Z,99.99
2018-11-11T09:00:48.416Z,99.99
2018-11-11T09:01:48.414Z,99.5
2018-11-11T09:02:48.390Z,99.98
2018-11-11T09:03:48.380Z,99.99
2018-11-11T09:04:48.559Z,99.99
2018-11-11T09:05:48.102Z,99.99
2018-11-11T09:06:48.342Z,99.99
2018-11-11T09:07:48.082Z,99.99
2018-11-11T09:08:48.322Z,99.99
2018-11-11T09:09:48.055Z,99.99
2018-11-11T09:10:48.302Z,99.99
2018-11-11T09:11:48.295Z,99.99
2018-11-11T09:12:48.274Z,99.99
2018-11-11T09:13:48.266Z,99.99
2018-11-11T09:14:48.250Z,99.99
2018-11-11T09:15:48.244Z,99.99
2018-11-11T09:16:48.233Z,99.99
2018-11-11T09:17:47.970Z,99.99
2018-11-11T09:18:48.210Z,99.99
2018-11-11T09:19:48.197Z,99.99
2018-11-11T09:20:47.935Z,99.99
2018-11-11T09:21:48.188Z,99.99
2018-11-11T09:22:48.162Z,99.99
2018-11-11T09:23:47.982Z,99.99
2018-11-11T09:24:47.892Z,99.99
2018-11-11T09:25:47.880Z,99.99
2018-11-11T09:26:48.124Z,99.99
2018-11-11T09:27:48.108Z,99.99
2018-11-11T09:28:47.846Z,99.99
2018-11-11T09:29:48.490Z,99.99
2018-11-11T09:30:48.076Z,99.99
2018-11-11T09:31:48.068Z,99.99
2018-11-11T09:32:47.802Z,99.99
2018-11-11T09:33:48.044Z,99.99
2018-11-11T09:34:47.781Z,99.99
2018-11-11T09:35:47.768Z,99.99
2018-11-11T09:36:47.761Z,99.99
2018-11-11T09:37:48.001Z,99.99
2018-11-11T09:38:47.754Z,99.99
2018-11-11T09:39:47.979Z,99.99
2018-11-11T09:40:47.968Z,99.99
2018-11-11T09:41:47.957Z,99.99
2018-11-11T09:42:47.694Z,99.99
2018-11-11T09:43:47.684Z,99.99
2018-11-11T09:44:47.923Z,99.99
2018-11-11T09:45:47.660Z,99.55
2018-11-11T09:46:47.904Z,99.41
2018-11-11T09:47:48.045Z,99.99
2018-11-11T09:48:47.629Z,99.99
2018-11-11T09:49:47.619Z,99.99
2018-11-11T09:50:47.862Z,99.99
2018-11-11T09:51:47.908Z,99.99
2018-11-11T09:52:48.175Z,99.99
2018-11-11T09:53:47.850Z,99.99
2018-11-11T09:54:47.825Z,99.99
2018-11-11T09:55:47.837Z,99.99
2018-11-11T09:56:47.797Z,99.99
2018-11-11T09:57:47.537Z,99.99
2018-11-11T09:58:48.143Z,99.99
2018-11-11T09:59:47.950Z,99.99
2018-11-11T10:00:47.756Z,99.99
2018-11-11T10:01:47.494Z,99.99
2018-11-11T10:02:47.484Z,99.99
2018-11-11T10:03:47.729Z,99.99
2018-11-11T10:04:47.801Z,99.99
2018-11-11T10:05:47.723Z,99.99
2018-11-11T10:06:48.187Z,99.99
2018-11-11T10:07:47.683Z,99.99
2018-11-11T10:08:47.679Z,99.99
2018-11-11T10:09:47.664Z,99.99
2018-11-11T10:10:47.662Z,99.99
2018-11-11T10:11:47.393Z,99.99
2018-11-11T10:12:47.681Z,99.99
2018-11-11T10:13:47.630Z,99.99
2018-11-11T10:14:47.616Z,99.99
2018-11-11T10:15:47.608Z,99.99
2018-11-11T10:16:47.341Z,99.99
2018-11-11T10:17:47.589Z,99.99
2018-11-11T10:18:47.386Z,99.99
2018-11-11T10:19:47.566Z,99.99
2018-11-11T10:20:47.670Z,99.99
2018-11-11T10:21:47.546Z,99.99
2018-11-11T10:22:47.539Z,99.99
2018-11-11T10:23:47.531Z,99.99
2018-11-11T10:24:47.513Z,99.99
2018-11-11T10:25:47.508Z,99.99
2018-11-11T10:26:47.494Z,99.99
2018-11-11T10:27:47.482Z,99.99
2018-11-11T10:28:47.477Z,99.99
2018-11-11T10:29:47.581Z,99.99
2018-11-11T10:30:47.457Z,99.99
2018-11-11T10:31:47.443Z,99.99
2018-11-11T10:32:47.436Z,99.99
2018-11-11T10:33:47.432Z,99.99
2018-11-11T10:34:47.161Z,99.99
2018-11-11T10:35:47.407Z,99.99
2018-11-11T10:36:47.398Z,99.99
2018-11-11T10:37:47.384Z,99.99
2018-11-11T10:38:47.373Z,99.99
2018-11-11T10:39:47.365Z,99.99
2018-11-11T10:40:47.357Z,99.99
2018-11-11T10:41:47.349Z,99.99
2018-11-11T10:42:47.083Z,99.99
2018-11-11T10:43:47.323Z,99.99
2018-11-11T10:44:47.062Z,99.99
2018-11-11T10:45:47.307Z,99.99
2018-11-11T10:46:47.381Z,99.99
2018-11-11T10:47:47.285Z,99.99
2018-11-11T10:48:47.278Z,99.99
2018-11-11T10:49:47.016Z,99.99
2018-11-11T10:50:47.005Z,99.99
2018-11-11T10:51:47.251Z,99.99
2018-11-11T10:52:47.260Z,99.99
2018-11-11T10:53:47.232Z,99.99
2018-11-11T10:54:46.967Z,99.99
2018-11-11T10:55:47.219Z,99.99
2018-11-11T10:56:47.199Z,99.99
2018-11-11T10:57:47.196Z,99.99
2018-11-11T10:58:47.181Z,99.99
2018-11-11T10:59:46.922Z,99.99
2018-11-11T11:00:46.913Z,99.99
2018-11-11T11:01:47.157Z,99.99
2018-11-11T11:02:46.895Z,99.99
2018-11-11T11:03:46.888Z,99.99
2018-11-11T11:04:47.135Z,99.99
2018-11-11T11:05:47.181Z,99.99
2018-11-11T11:06:47.115Z,99.99
2018-11-11T11:07:46.851Z,99.99
2018-11-11T11:08:46.842Z,99.99
2018-11-11T11:09:47.088Z,99.99
2018-11-11T11:10:47.075Z,99.99
2018-11-11T11:11:47.068Z,99.99
2018-11-11T11:12:47.059Z,99.99
2018-11-11T11:13:47.150Z,99.99
2018-11-11T11:14:47.042Z,99.99
2018-11-11T11:15:46.778Z,99.99
2018-11-11T11:16:47.022Z,99.99
2018-11-11T11:17:47.011Z,99.99
2018-11-11T11:18:47.000Z,99.99
2018-11-11T11:19:46.993Z,99.99
2018-11-11T11:20:46.985Z,99.99
2018-11-11T11:21:46.977Z,99.99
2018-11-11T11:22:46.732Z,99.99
2018-11-11T11:23:46.962Z,99.99
2018-11-11T11:24:46.950Z,99.99
2018-11-11T11:25:47.192Z,99.99
2018-11-11T11:26:46.676Z,99.99
2018-11-11T11:27:46.923Z,99.99
2018-11-11T11:28:46.911Z,99.99
2018-11-11T11:29:46.901Z,99.99
2018-11-11T11:30:46.895Z,99.99
2018-11-11T11:31:46.849Z,99.99
2018-11-11T11:32:46.621Z,99.99
2018-11-11T11:33:46.877Z,99.99
2018-11-11T11:34:46.603Z,99.99
2018-11-11T11:35:47.046Z,99.99
2018-11-11T11:36:46.839Z,99.99
2018-11-11T11:37:46.577Z,99.99
2018-11-11T11:38:46.820Z,99.99
2018-11-11T11:39:46.813Z,99.99
2018-11-11T11:40:46.808Z,99.99
2018-11-11T11:41:46.793Z,99.99
2018-11-11T11:42:46.784Z,99.99
2018-11-11T11:43:46.790Z,99.99
2018-11-11T11:44:46.519Z,99.99
2018-11-11T11:45:46.760Z,99.99
2018-11-11T11:46:46.799Z,99.99
2018-11-11T11:47:46.740Z,99.99
2018-11-11T11:48:46.479Z,99.99
2018-11-11T11:49:46.772Z,99.99
2018-11-11T11:50:46.720Z,99.99
2018-11-11T11:51:46.484Z,99.99
2018-11-11T11:52:46.795Z,99.99
2018-11-11T11:53:46.687Z,99.99
2018-11-11T11:54:46.428Z,99.99
2018-11-11T11:55:46.669Z,99.99
2018-11-11T11:56:46.662Z,99.99
2018-11-11T11:57:46.657Z,99.99
2018-11-11T11:58:46.392Z,99.99
2018-11-11T11:59:46.637Z,99.99
2018-11-11T12:00:46.375Z,99.99
2018-11-11T12:01:46.617Z,99.99
2018-11-11T12:02:46.611Z,99.99
2018-11-11T12:03:46.605Z,99.99
2018-11-11T12:04:46.342Z,99.99
2018-11-11T12:05:46.586Z,99.99
2018-11-11T12:06:46.578Z,99.99
2018-11-11T12:07:46.566Z,99.99
2018-11-11T12:08:47.006Z,99.99
2018-11-11T12:09:46.547Z,99.99
2018-11-11T12:10:46.289Z,99.99
2018-11-11T12:11:46.534Z,99.99
2018-11-11T12:12:46.524Z,99.99
2018-11-11T12:13:46.514Z,99.99
2018-11-11T12:14:46.506Z,99.99
2018-11-11T12:15:46.498Z,99.99
2018-11-11T12:16:46.772Z,99.99
2018-11-11T12:17:46.226Z,99.99
2018-11-11T12:18:46.219Z,99.99
2018-11-11T12:19:46.463Z,99.99
2018-11-11T12:20:46.459Z,99.99
2018-11-11T12:21:46.444Z,99.99
2018-11-11T12:22:46.434Z,99.99
2018-11-11T12:23:46.426Z,99.99
2018-11-11T12:24:46.419Z,99.99
2018-11-11T12:25:46.411Z,99.99
2018-11-11T12:26:46.402Z,99.99
2018-11-11T12:27:46.394Z,99.99
2018-11-11T12:28:46.381Z,99.99
2018-11-11T12:29:46.374Z,99.99
2018-11-11T12:30:46.539Z,99.99
2018-11-11T12:31:46.355Z,99.99
2018-11-11T12:32:46.345Z,99.99
2018-11-11T12:33:46.084Z,99.99
2018-11-11T12:34:46.362Z,99.99
2018-11-11T12:35:46.319Z,99.99
2018-11-11T12:36:46.316Z,99.99
2018-11-11T12:37:46.303Z,99.99
2018-11-11T12:38:46.348Z,99.99
2018-11-11T12:39:46.559Z,99.99
2018-11-11T12:40:46.275Z,99.99
2018-11-11T12:41:46.270Z,99.99
2018-11-11T12:42:46.259Z,99.99
2018-11-11T12:43:46.249Z,99.99
2018-11-11T12:44:46.403Z,99.99
2018-11-11T12:45:45.982Z,99.99
2018-11-11T12:46:46.329Z,99.99
2018-11-11T12:47:46.219Z,99.99
2018-11-11T12:48:45.977Z,99.99
2018-11-11T12:49:46.204Z,99.99
2018-11-11T12:50:46.188Z,99.99
2018-11-11T12:51:45.931Z,99.99
2018-11-11T12:52:46.173Z,99.99
2018-11-11T12:53:46.157Z,99.99
2018-11-11T12:54:46.239Z,99.99